sensor_id;sensor_type;location;lat;lon;timestamp;temperature;humidity
10296;DHT22;5193;51.032;6.356;2023-04-25T00:00:50;6.20;99.90
10296;DHT22;5193;51.032;6.356;2023-04-25T00:03:17;6.20;99.90
10296;DHT22;5193;51.032;6.356;2023-04-25T00:05:43;6.20;99.90
10296;DHT22;5193;51.032;6.356;2023-04-25T00:08:10;7.10;99.90
10296;DHT22;5193;51.032;6.356;2023-04-25T00:10:36;6.10;99.90
10296;DHT22;5193;51.032;6.356;2023-04-25T00:13:01;6.10;99.90
10296;DHT22;5193;51.032;6.356;2023-04-25T00:15:28;6.00;99.90
10296;DHT22;5193;51.032;6.356;2023-04-25T00:17:56;6.00;99.90
10296;DHT22;5193;51.032;6.356;2023-04-25T00:20:22;5.90;99.90
10296;DHT22;5193;51.032;6.356;2023-04-25T00:22:49;5.90;99.90
10296;DHT22;5193;51.032;6.356;2023-04-25T00:25:15;5.90;99.90
10296;DHT22;5193;51.032;6.356;2023-04-25T00:27:40;5.80;99.90
10296;DHT22;5193;51.032;6.356;2023-04-25T00:30:07;5.80;99.90
10296;DHT22;5193;51.032;6.356;2023-04-25T00:32:33;5.70;99.90
10296;DHT22;5193;51.032;6.356;2023-04-25T00:34:59;5.70;99.90
10296;DHT22;5193;51.032;6.356;2023-04-25T00:37:24;5.60;99.90
10296;DHT22;5193;51.032;6.356;2023-04-25T00:39:51;5.60;99.90
10296;DHT22;5193;51.032;6.356;2023-04-25T00:42:19;5.50;99.90
10296;DHT22;5193;51.032;6.356;2023-04-25T00:44:45;5.50;99.90
10296;DHT22;5193;51.032;6.356;2023-04-25T00:47:11;5.50;99.90
10296;DHT22;5193;51.032;6.356;2023-04-25T00:49:36;5.50;99.90
10296;DHT22;5193;51.032;6.356;2023-04-25T00:52:02;5.50;99.90
10296;DHT22;5193;51.032;6.356;2023-04-25T00:54:28;5.40;99.90
10296;DHT22;5193;51.032;6.356;2023-04-25T00:56:53;5.40;99.90
10296;DHT22;5193;51.032;6.356;2023-04-25T00:59:19;5.40;99.90
10296;DHT22;5193;51.032;6.356;2023-04-25T01:01:45;5.40;99.90
10296;DHT22;5193;51.032;6.356;2023-04-25T01:04:11;5.30;99.90
10296;DHT22;5193;51.032;6.356;2023-04-25T01:06:38;5.30;99.90
10296;DHT22;5193;51.032;6.356;2023-04-25T01:09:04;5.30;99.90
10296;DHT22;5193;51.032;6.356;2023-04-25T01:11:30;5.30;99.90
10296;DHT22;5193;51.032;6.356;2023-04-25T01:13:56;5.20;99.90
10296;DHT22;5193;51.032;6.356;2023-04-25T01:16:22;5.20;99.90
10296;DHT22;5193;51.032;6.356;2023-04-25T01:18:50;5.20;99.90
10296;DHT22;5193;51.032;6.356;2023-04-25T01:21:17;5.10;99.90
10296;DHT22;5193;51.032;6.356;2023-04-25T01:23:43;5.10;99.90
10296;DHT22;5193;51.032;6.356;2023-04-25T01:26:10;5.10;99.90
10296;DHT22;5193;51.032;6.356;2023-04-25T01:28:36;5.10;99.90
10296;DHT22;5193;51.032;6.356;2023-04-25T01:31:03;5.10;99.90
10296;DHT22;5193;51.032;6.356;2023-04-25T01:33:29;5.00;99.90
10296;DHT22;5193;51.032;6.356;2023-04-25T01:35:55;5.00;99.90
10296;DHT22;5193;51.032;6.356;2023-04-25T01:38:20;5.00;99.90
10296;DHT22;5193;51.032;6.356;2023-04-25T01:40:46;5.00;99.90
10296;DHT22;5193;51.032;6.356;2023-04-25T01:43:12;5.00;99.90
10296;DHT22;5193;51.032;6.356;2023-04-25T01:45:40;5.00;99.90
10296;DHT22;5193;51.032;6.356;2023-04-25T01:48:07;5.00;99.90
10296;DHT22;5193;51.032;6.356;2023-04-25T01:50:33;5.00;99.90
10296;DHT22;5193;51.032;6.356;2023-04-25T01:52:59;5.00;99.90
10296;DHT22;5193;51.032;6.356;2023-04-25T01:55:26;5.00;99.90
10296;DHT22;5193;51.032;6.356;2023-04-25T01:57:51;4.90;99.90
10296;DHT22;5193;51.032;6.356;2023-04-25T02:00:17;4.90;99.90
10296;DHT22;5193;51.032;6.356;2023-04-25T02:02:43;4.80;99.90
10296;DHT22;5193;51.032;6.356;2023-04-25T02:05:08;4.90;99.90
10296;DHT22;5193;51.032;6.356;2023-04-25T02:07:34;5.00;99.90
10296;DHT22;5193;51.032;6.356;2023-04-25T02:09:59;5.00;99.90
10296;DHT22;5193;51.032;6.356;2023-04-25T02:12:25;5.00;99.90
10296;DHT22;5193;51.032;6.356;2023-04-25T02:14:51;5.00;99.90
10296;DHT22;5193;51.032;6.356;2023-04-25T02:17:17;5.00;99.90
10296;DHT22;5193;51.032;6.356;2023-04-25T02:19:43;5.00;99.90
10296;DHT22;5193;51.032;6.356;2023-04-25T02:22:10;5.00;99.90
10296;DHT22;5193;51.032;6.356;2023-04-25T02:24:36;5.10;99.90
10296;DHT22;5193;51.032;6.356;2023-04-25T02:27:01;5.10;99.90
10296;DHT22;5193;51.032;6.356;2023-04-25T02:29:27;5.00;99.90
10296;DHT22;5193;51.032;6.356;2023-04-25T02:31:53;5.10;99.90
10296;DHT22;5193;51.032;6.356;2023-04-25T02:34:18;5.00;99.90
10296;DHT22;5193;51.032;6.356;2023-04-25T02:36:44;5.10;99.90
10296;DHT22;5193;51.032;6.356;2023-04-25T02:39:10;5.00;99.90
10296;DHT22;5193;51.032;6.356;2023-04-25T02:41:36;5.10;99.90
10296;DHT22;5193;51.032;6.356;2023-04-25T02:44:01;5.10;99.90
10296;DHT22;5193;51.032;6.356;2023-04-25T02:46:27;5.10;99.90
10296;DHT22;5193;51.032;6.356;2023-04-25T02:48:52;5.10;99.90
10296;DHT22;5193;51.032;6.356;2023-04-25T02:51:18;5.10;99.90
10296;DHT22;5193;51.032;6.356;2023-04-25T02:53:44;5.10;99.90
10296;DHT22;5193;51.032;6.356;2023-04-25T02:56:09;5.10;99.90
10296;DHT22;5193;51.032;6.356;2023-04-25T02:58:35;5.10;99.90
10296;DHT22;5193;51.032;6.356;2023-04-25T03:01:00;5.10;99.90
10296;DHT22;5193;51.032;6.356;2023-04-25T03:03:26;5.40;99.90
10296;DHT22;5193;51.032;6.356;2023-04-25T03:05:52;5.10;99.90
10296;DHT22;5193;51.032;6.356;2023-04-25T03:08:18;5.10;99.90
10296;DHT22;5193;51.032;6.356;2023-04-25T03:10:44;5.10;99.90
10296;DHT22;5193;51.032;6.356;2023-04-25T03:13:10;5.20;99.90
10296;DHT22;5193;51.032;6.356;2023-04-25T03:15:36;5.20;99.90
10296;DHT22;5193;51.032;6.356;2023-04-25T03:18:02;5.20;99.90
10296;DHT22;5193;51.032;6.356;2023-04-25T03:20:28;5.20;99.90
10296;DHT22;5193;51.032;6.356;2023-04-25T03:22:54;5.30;99.90
10296;DHT22;5193;51.032;6.356;2023-04-25T03:25:19;5.30;99.90
10296;DHT22;5193;51.032;6.356;2023-04-25T03:27:45;5.30;99.90
10296;DHT22;5193;51.032;6.356;2023-04-25T03:30:11;5.30;99.90
10296;DHT22;5193;51.032;6.356;2023-04-25T03:32:37;5.30;99.90
10296;DHT22;5193;51.032;6.356;2023-04-25T03:35:03;5.30;99.90
10296;DHT22;5193;51.032;6.356;2023-04-25T03:37:29;5.40;99.90
10296;DHT22;5193;51.032;6.356;2023-04-25T03:39:54;5.40;99.90
10296;DHT22;5193;51.032;6.356;2023-04-25T03:42:20;5.40;99.90
10296;DHT22;5193;51.032;6.356;2023-04-25T03:44:48;5.40;99.90
10296;DHT22;5193;51.032;6.356;2023-04-25T03:47:14;5.40;99.90
10296;DHT22;5193;51.032;6.356;2023-04-25T03:49:39;5.40;99.90
10296;DHT22;5193;51.032;6.356;2023-04-25T03:52:05;5.40;99.90
10296;DHT22;5193;51.032;6.356;2023-04-25T03:54:30;5.40;99.90
10296;DHT22;5193;51.032;6.356;2023-04-25T03:56:56;5.40;99.90
10296;DHT22;5193;51.032;6.356;2023-04-25T03:59:22;5.30;99.90
10296;DHT22;5193;51.032;6.356;2023-04-25T04:01:47;5.30;99.90
10296;DHT22;5193;51.032;6.356;2023-04-25T04:04:13;5.30;99.90
10296;DHT22;5193;51.032;6.356;2023-04-25T04:06:38;5.30;99.90
10296;DHT22;5193;51.032;6.356;2023-04-25T04:09:04;5.30;99.90
10296;DHT22;5193;51.032;6.356;2023-04-25T04:11:30;5.30;99.90
10296;DHT22;5193;51.032;6.356;2023-04-25T04:13:57;5.30;99.90
10296;DHT22;5193;51.032;6.356;2023-04-25T04:16:23;5.30;99.90
10296;DHT22;5193;51.032;6.356;2023-04-25T04:18:48;5.30;99.90
10296;DHT22;5193;51.032;6.356;2023-04-25T04:21:14;5.30;99.90
10296;DHT22;5193;51.032;6.356;2023-04-25T04:23:40;5.30;99.90
10296;DHT22;5193;51.032;6.356;2023-04-25T04:26:06;5.30;99.90
10296;DHT22;5193;51.032;6.356;2023-04-25T04:28:33;5.30;99.90
10296;DHT22;5193;51.032;6.356;2023-04-25T04:31:01;5.30;99.90
10296;DHT22;5193;51.032;6.356;2023-04-25T04:33:27;5.40;99.90
10296;DHT22;5193;51.032;6.356;2023-04-25T04:35:53;5.40;99.90
10296;DHT22;5193;51.032;6.356;2023-04-25T04:38:20;5.40;99.90
10296;DHT22;5193;51.032;6.356;2023-04-25T04:40:47;5.40;99.90
10296;DHT22;5193;51.032;6.356;2023-04-25T04:43:13;5.40;99.90
10296;DHT22;5193;51.032;6.356;2023-04-25T04:45:38;5.50;99.90
10296;DHT22;5193;51.032;6.356;2023-04-25T04:48:06;5.40;99.90
10296;DHT22;5193;51.032;6.356;2023-04-25T04:50:32;5.50;99.90
10296;DHT22;5193;51.032;6.356;2023-04-25T04:53:01;5.50;99.90
10296;DHT22;5193;51.032;6.356;2023-04-25T04:55:27;5.50;99.90
10296;DHT22;5193;51.032;6.356;2023-04-25T04:57:53;5.50;99.90
10296;DHT22;5193;51.032;6.356;2023-04-25T05:00:18;5.50;99.90
10296;DHT22;5193;51.032;6.356;2023-04-25T05:02:44;5.50;99.90
10296;DHT22;5193;51.032;6.356;2023-04-25T05:05:09;5.60;99.90
10296;DHT22;5193;51.032;6.356;2023-04-25T05:07:35;5.60;99.90
10296;DHT22;5193;51.032;6.356;2023-04-25T05:10:01;5.60;99.90
10296;DHT22;5193;51.032;6.356;2023-04-25T05:12:27;5.60;99.90
10296;DHT22;5193;51.032;6.356;2023-04-25T05:14:52;5.60;99.90
10296;DHT22;5193;51.032;6.356;2023-04-25T05:17:18;5.70;99.90
10296;DHT22;5193;51.032;6.356;2023-04-25T05:19:43;5.70;99.90
10296;DHT22;5193;51.032;6.356;2023-04-25T05:22:09;5.70;99.90
10296;DHT22;5193;51.032;6.356;2023-04-25T05:24:34;5.70;99.90
10296;DHT22;5193;51.032;6.356;2023-04-25T05:27:00;5.70;99.90
10296;DHT22;5193;51.032;6.356;2023-04-25T05:29:25;5.80;99.90
10296;DHT22;5193;51.032;6.356;2023-04-25T05:31:51;5.80;99.90
10296;DHT22;5193;51.032;6.356;2023-04-25T05:34:17;5.80;99.90
10296;DHT22;5193;51.032;6.356;2023-04-25T05:36:42;5.80;99.90
10296;DHT22;5193;51.032;6.356;2023-04-25T05:39:08;5.90;99.90
10296;DHT22;5193;51.032;6.356;2023-04-25T05:41:34;5.90;99.90
10296;DHT22;5193;51.032;6.356;2023-04-25T05:43:59;6.00;99.90
10296;DHT22;5193;51.032;6.356;2023-04-25T05:46:25;6.10;99.90
10296;DHT22;5193;51.032;6.356;2023-04-25T05:48:50;6.10;99.90
10296;DHT22;5193;51.032;6.356;2023-04-25T05:51:16;6.10;99.90
10296;DHT22;5193;51.032;6.356;2023-04-25T05:53:43;6.20;99.90
10296;DHT22;5193;51.032;6.356;2023-04-25T05:56:09;6.20;99.90
10296;DHT22;5193;51.032;6.356;2023-04-25T05:58:34;6.30;99.90
10296;DHT22;5193;51.032;6.356;2023-04-25T06:01:02;6.40;99.90
10296;DHT22;5193;51.032;6.356;2023-04-25T06:03:28;6.40;99.90
10296;DHT22;5193;51.032;6.356;2023-04-25T06:05:53;6.50;99.90
10296;DHT22;5193;51.032;6.356;2023-04-25T06:08:19;6.60;99.90
10296;DHT22;5193;51.032;6.356;2023-04-25T06:10:45;6.60;99.90
10296;DHT22;5193;51.032;6.356;2023-04-25T06:13:10;6.70;99.90
10296;DHT22;5193;51.032;6.356;2023-04-25T06:15:36;6.80;99.90
10296;DHT22;5193;51.032;6.356;2023-04-25T06:18:01;6.80;99.90
10296;DHT22;5193;51.032;6.356;2023-04-25T06:20:27;6.90;99.90
10296;DHT22;5193;51.032;6.356;2023-04-25T06:22:53;6.90;99.90
10296;DHT22;5193;51.032;6.356;2023-04-25T06:25:19;6.90;99.90
10296;DHT22;5193;51.032;6.356;2023-04-25T06:27:44;6.90;99.90
10296;DHT22;5193;51.032;6.356;2023-04-25T06:30:10;7.00;99.90
10296;DHT22;5193;51.032;6.356;2023-04-25T06:32:37;7.00;99.90
10296;DHT22;5193;51.032;6.356;2023-04-25T06:35:03;7.10;99.90
10296;DHT22;5193;51.032;6.356;2023-04-25T06:37:29;7.10;99.90
10296;DHT22;5193;51.032;6.356;2023-04-25T06:39:55;7.10;99.90
10296;DHT22;5193;51.032;6.356;2023-04-25T06:42:20;7.20;99.90
10296;DHT22;5193;51.032;6.356;2023-04-25T06:44:46;7.30;99.90
10296;DHT22;5193;51.032;6.356;2023-04-25T06:47:12;7.30;99.90
10296;DHT22;5193;51.032;6.356;2023-04-25T06:49:37;7.40;99.90
10296;DHT22;5193;51.032;6.356;2023-04-25T06:52:03;7.40;99.90
10296;DHT22;5193;51.032;6.356;2023-04-25T06:54:28;7.50;99.90
10296;DHT22;5193;51.032;6.356;2023-04-25T06:56:55;7.50;99.90
10296;DHT22;5193;51.032;6.356;2023-04-25T06:59:21;7.50;99.90
10296;DHT22;5193;51.032;6.356;2023-04-25T07:01:47;7.50;99.90
10296;DHT22;5193;51.032;6.356;2023-04-25T07:04:12;7.50;99.90
10296;DHT22;5193;51.032;6.356;2023-04-25T07:06:38;7.60;99.90
10296;DHT22;5193;51.032;6.356;2023-04-25T07:09:11;7.60;99.90
10296;DHT22;5193;51.032;6.356;2023-04-25T07:11:37;7.60;99.90
10296;DHT22;5193;51.032;6.356;2023-04-25T07:14:03;7.60;99.90
10296;DHT22;5193;51.032;6.356;2023-04-25T07:16:28;7.60;99.90
10296;DHT22;5193;51.032;6.356;2023-04-25T07:18:54;7.70;99.90
10296;DHT22;5193;51.032;6.356;2023-04-25T07:21:19;7.80;99.90
10296;DHT22;5193;51.032;6.356;2023-04-25T07:23:45;7.80;99.90
10296;DHT22;5193;51.032;6.356;2023-04-25T07:26:11;7.90;99.90
10296;DHT22;5193;51.032;6.356;2023-04-25T07:28:36;8.00;99.90
10296;DHT22;5193;51.032;6.356;2023-04-25T07:31:02;8.00;99.90
10296;DHT22;5193;51.032;6.356;2023-04-25T07:33:28;8.10;99.90
10296;DHT22;5193;51.032;6.356;2023-04-25T07:35:54;8.10;99.90
10296;DHT22;5193;51.032;6.356;2023-04-25T07:38:21;8.20;99.90
10296;DHT22;5193;51.032;6.356;2023-04-25T07:40:48;8.30;99.90
10296;DHT22;5193;51.032;6.356;2023-04-25T07:43:13;8.30;99.90
10296;DHT22;5193;51.032;6.356;2023-04-25T07:45:42;8.40;99.90
10296;DHT22;5193;51.032;6.356;2023-04-25T07:48:07;8.40;99.90
10296;DHT22;5193;51.032;6.356;2023-04-25T07:50:33;8.50;99.90
10296;DHT22;5193;51.032;6.356;2023-04-25T07:52:59;8.50;99.90
10296;DHT22;5193;51.032;6.356;2023-04-25T07:55:24;8.60;99.90
10296;DHT22;5193;51.032;6.356;2023-04-25T07:57:50;8.60;99.90
10296;DHT22;5193;51.032;6.356;2023-04-25T08:00:16;8.60;99.90
10296;DHT22;5193;51.032;6.356;2023-04-25T08:02:41;8.60;99.90
10296;DHT22;5193;51.032;6.356;2023-04-25T08:05:07;8.60;99.90
10296;DHT22;5193;51.032;6.356;2023-04-25T08:07:37;8.70;99.90
10296;DHT22;5193;51.032;6.356;2023-04-25T08:10:03;8.80;99.90
10296;DHT22;5193;51.032;6.356;2023-04-25T08:12:28;8.90;99.90
10296;DHT22;5193;51.032;6.356;2023-04-25T08:14:54;9.00;99.90
10296;DHT22;5193;51.032;6.356;2023-04-25T08:17:20;9.10;99.90
10296;DHT22;5193;51.032;6.356;2023-04-25T08:19:45;9.20;99.90
10296;DHT22;5193;51.032;6.356;2023-04-25T08:22:11;9.20;99.90
10296;DHT22;5193;51.032;6.356;2023-04-25T08:24:38;9.20;99.90
10296;DHT22;5193;51.032;6.356;2023-04-25T08:27:03;9.30;99.90
10296;DHT22;5193;51.032;6.356;2023-04-25T08:29:29;9.40;99.90
10296;DHT22;5193;51.032;6.356;2023-04-25T08:31:54;9.50;99.90
10296;DHT22;5193;51.032;6.356;2023-04-25T08:34:20;9.60;99.90
10296;DHT22;5193;51.032;6.356;2023-04-25T08:36:46;9.50;99.90
10296;DHT22;5193;51.032;6.356;2023-04-25T08:39:11;9.50;99.90
10296;DHT22;5193;51.032;6.356;2023-04-25T08:41:38;9.50;99.90
10296;DHT22;5193;51.032;6.356;2023-04-25T08:44:05;9.60;99.90
10296;DHT22;5193;51.032;6.356;2023-04-25T08:46:31;9.60;99.90
10296;DHT22;5193;51.032;6.356;2023-04-25T08:49:01;9.60;99.90
10296;DHT22;5193;51.032;6.356;2023-04-25T08:51:27;9.60;99.90
10296;DHT22;5193;51.032;6.356;2023-04-25T08:53:56;9.60;99.90
10296;DHT22;5193;51.032;6.356;2023-04-25T08:56:28;9.60;99.90
10296;DHT22;5193;51.032;6.356;2023-04-25T08:58:54;9.60;99.90
10296;DHT22;5193;51.032;6.356;2023-04-25T09:01:20;9.60;99.90
10296;DHT22;5193;51.032;6.356;2023-04-25T09:03:46;9.70;99.90
10296;DHT22;5193;51.032;6.356;2023-04-25T09:06:13;9.90;99.90
10296;DHT22;5193;51.032;6.356;2023-04-25T09:08:38;9.90;99.90
10296;DHT22;5193;51.032;6.356;2023-04-25T09:11:06;9.90;99.90
10296;DHT22;5193;51.032;6.356;2023-04-25T09:13:32;10.00;99.90
10296;DHT22;5193;51.032;6.356;2023-04-25T09:15:58;10.00;99.90
10296;DHT22;5193;51.032;6.356;2023-04-25T09:18:31;10.00;99.90
10296;DHT22;5193;51.032;6.356;2023-04-25T09:21:09;10.00;99.90
10296;DHT22;5193;51.032;6.356;2023-04-25T09:23:43;9.90;99.90
10296;DHT22;5193;51.032;6.356;2023-04-25T09:26:09;9.90;99.90
10296;DHT22;5193;51.032;6.356;2023-04-25T09:28:35;9.90;99.90
10296;DHT22;5193;51.032;6.356;2023-04-25T09:31:03;9.80;99.90
10296;DHT22;5193;51.032;6.356;2023-04-25T09:33:33;10.00;99.90
10296;DHT22;5193;51.032;6.356;2023-04-25T09:36:05;10.10;99.90
10296;DHT22;5193;51.032;6.356;2023-04-25T09:38:32;10.30;99.90
10296;DHT22;5193;51.032;6.356;2023-04-25T09:41:05;10.50;99.90
10296;DHT22;5193;51.032;6.356;2023-04-25T09:43:31;10.70;99.90
10296;DHT22;5193;51.032;6.356;2023-04-25T09:45:56;10.70;99.90
10296;DHT22;5193;51.032;6.356;2023-04-25T09:48:26;10.70;99.90
10296;DHT22;5193;51.032;6.356;2023-04-25T09:51:13;10.60;99.90
10296;DHT22;5193;51.032;6.356;2023-04-25T09:53:43;10.50;99.90
10296;DHT22;5193;51.032;6.356;2023-04-25T09:56:10;10.60;99.90
10296;DHT22;5193;51.032;6.356;2023-04-25T09:58:38;10.80;99.90
10296;DHT22;5193;51.032;6.356;2023-04-25T10:01:06;11.00;99.90
10296;DHT22;5193;51.032;6.356;2023-04-25T10:03:33;11.00;99.90
10296;DHT22;5193;51.032;6.356;2023-04-25T10:06:00;10.80;99.90
10296;DHT22;5193;51.032;6.356;2023-04-25T10:08:35;10.60;99.90
10296;DHT22;5193;51.032;6.356;2023-04-25T10:11:02;10.50;99.90
10296;DHT22;5193;51.032;6.356;2023-04-25T10:13:30;10.40;99.90
10296;DHT22;5193;51.032;6.356;2023-04-25T10:15:57;10.40;99.90
10296;DHT22;5193;51.032;6.356;2023-04-25T10:18:24;10.40;99.90
10296;DHT22;5193;51.032;6.356;2023-04-25T10:20:50;10.50;99.90
10296;DHT22;5193;51.032;6.356;2023-04-25T10:23:16;10.50;99.90
10296;DHT22;5193;51.032;6.356;2023-04-25T10:25:42;10.70;99.90
10296;DHT22;5193;51.032;6.356;2023-04-25T10:28:08;10.90;99.90
10296;DHT22;5193;51.032;6.356;2023-04-25T10:30:34;11.10;99.90
10296;DHT22;5193;51.032;6.356;2023-04-25T10:33:00;11.30;99.90
10296;DHT22;5193;51.032;6.356;2023-04-25T10:35:27;11.40;99.90
10296;DHT22;5193;51.032;6.356;2023-04-25T10:37:57;11.40;99.90
10296;DHT22;5193;51.032;6.356;2023-04-25T10:40:23;11.40;99.90
10296;DHT22;5193;51.032;6.356;2023-04-25T10:42:54;11.40;99.90
10296;DHT22;5193;51.032;6.356;2023-04-25T10:45:20;11.10;99.90
10296;DHT22;5193;51.032;6.356;2023-04-25T10:47:46;11.00;99.90
10296;DHT22;5193;51.032;6.356;2023-04-25T10:50:14;10.80;99.90
10296;DHT22;5193;51.032;6.356;2023-04-25T10:52:40;10.80;99.90
10296;DHT22;5193;51.032;6.356;2023-04-25T10:55:06;10.80;99.90
10296;DHT22;5193;51.032;6.356;2023-04-25T10:57:43;10.80;99.90
10296;DHT22;5193;51.032;6.356;2023-04-25T11:00:17;10.90;99.90
10296;DHT22;5193;51.032;6.356;2023-04-25T11:02:45;11.00;99.90
10296;DHT22;5193;51.032;6.356;2023-04-25T11:05:30;10.90;99.90
10296;DHT22;5193;51.032;6.356;2023-04-25T11:07:58;10.80;99.90
10296;DHT22;5193;51.032;6.356;2023-04-25T11:10:28;10.70;99.90
10296;DHT22;5193;51.032;6.356;2023-04-25T11:12:54;10.60;99.90
10296;DHT22;5193;51.032;6.356;2023-04-25T11:15:20;10.60;99.90
10296;DHT22;5193;51.032;6.356;2023-04-25T11:17:46;10.80;99.90
10296;DHT22;5193;51.032;6.356;2023-04-25T11:20:13;10.70;99.90
10296;DHT22;5193;51.032;6.356;2023-04-25T11:22:40;10.70;99.90
10296;DHT22;5193;51.032;6.356;2023-04-25T11:25:07;10.80;99.90
10296;DHT22;5193;51.032;6.356;2023-04-25T11:27:33;10.70;99.90
10296;DHT22;5193;51.032;6.356;2023-04-25T11:30:13;10.70;99.90
10296;DHT22;5193;51.032;6.356;2023-04-25T11:32:40;10.80;99.90
10296;DHT22;5193;51.032;6.356;2023-04-25T11:35:06;10.80;99.90
10296;DHT22;5193;51.032;6.356;2023-04-25T11:37:32;10.90;99.90
10296;DHT22;5193;51.032;6.356;2023-04-25T11:39:59;10.90;99.90
10296;DHT22;5193;51.032;6.356;2023-04-25T11:42:25;11.10;99.90
10296;DHT22;5193;51.032;6.356;2023-04-25T11:44:51;11.20;99.90
10296;DHT22;5193;51.032;6.356;2023-04-25T11:47:17;11.40;99.90
10296;DHT22;5193;51.032;6.356;2023-04-25T11:49:42;11.70;99.90
10296;DHT22;5193;51.032;6.356;2023-04-25T11:52:08;12.00;99.90
10296;DHT22;5193;51.032;6.356;2023-04-25T11:54:37;12.20;99.90
10296;DHT22;5193;51.032;6.356;2023-04-25T11:57:03;12.30;99.90
10296;DHT22;5193;51.032;6.356;2023-04-25T11:59:29;12.30;99.90
10296;DHT22;5193;51.032;6.356;2023-04-25T12:01:55;12.10;99.90
10296;DHT22;5193;51.032;6.356;2023-04-25T12:04:24;11.90;99.90
10296;DHT22;5193;51.032;6.356;2023-04-25T12:06:54;11.50;99.90
10296;DHT22;5193;51.032;6.356;2023-04-25T12:09:27;11.10;99.90
10296;DHT22;5193;51.032;6.356;2023-04-25T12:11:55;10.60;99.90
10296;DHT22;5193;51.032;6.356;2023-04-25T12:14:26;10.30;99.90
10296;DHT22;5193;51.032;6.356;2023-04-25T12:16:54;10.10;99.90
10296;DHT22;5193;51.032;6.356;2023-04-25T12:19:20;9.90;99.90
10296;DHT22;5193;51.032;6.356;2023-04-25T12:21:47;9.80;99.90
10296;DHT22;5193;51.032;6.356;2023-04-25T12:24:14;9.60;99.90
10296;DHT22;5193;51.032;6.356;2023-04-25T12:27:00;9.70;99.90
10296;DHT22;5193;51.032;6.356;2023-04-25T12:29:27;9.70;99.90
10296;DHT22;5193;51.032;6.356;2023-04-25T12:31:54;9.60;99.90
10296;DHT22;5193;51.032;6.356;2023-04-25T12:34:20;9.80;99.90
10296;DHT22;5193;51.032;6.356;2023-04-25T12:36:46;10.00;99.90
10296;DHT22;5193;51.032;6.356;2023-04-25T12:39:23;10.30;99.90
10296;DHT22;5193;51.032;6.356;2023-04-25T12:41:50;10.50;99.90
10296;DHT22;5193;51.032;6.356;2023-04-25T12:44:16;10.80;99.90
10296;DHT22;5193;51.032;6.356;2023-04-25T12:46:42;10.90;99.90
10296;DHT22;5193;51.032;6.356;2023-04-25T12:49:08;11.20;99.90
10296;DHT22;5193;51.032;6.356;2023-04-25T12:51:35;11.40;99.90
10296;DHT22;5193;51.032;6.356;2023-04-25T12:54:02;11.80;99.90
10296;DHT22;5193;51.032;6.356;2023-04-25T12:56:28;12.00;99.90
10296;DHT22;5193;51.032;6.356;2023-04-25T12:58:54;12.10;99.90
10296;DHT22;5193;51.032;6.356;2023-04-25T13:01:21;12.10;99.90
10296;DHT22;5193;51.032;6.356;2023-04-25T13:03:47;12.20;99.90
10296;DHT22;5193;51.032;6.356;2023-04-25T13:06:13;12.10;99.90
10296;DHT22;5193;51.032;6.356;2023-04-25T13:08:39;11.90;99.90
10296;DHT22;5193;51.032;6.356;2023-04-25T13:11:06;11.70;99.90
10296;DHT22;5193;51.032;6.356;2023-04-25T13:13:32;11.60;99.90
10296;DHT22;5193;51.032;6.356;2023-04-25T13:16:02;11.50;99.90
10296;DHT22;5193;51.032;6.356;2023-04-25T13:18:29;11.40;99.90
10296;DHT22;5193;51.032;6.356;2023-04-25T13:20:54;11.30;99.90
10296;DHT22;5193;51.032;6.356;2023-04-25T13:23:20;11.30;99.90
10296;DHT22;5193;51.032;6.356;2023-04-25T13:25:47;11.20;99.90
10296;DHT22;5193;51.032;6.356;2023-04-25T13:28:13;11.20;99.90
10296;DHT22;5193;51.032;6.356;2023-04-25T13:30:39;11.10;99.90
10296;DHT22;5193;51.032;6.356;2023-04-25T13:33:05;11.00;99.90
10296;DHT22;5193;51.032;6.356;2023-04-25T13:35:32;10.80;99.90
10296;DHT22;5193;51.032;6.356;2023-04-25T13:37:58;10.70;99.90
10296;DHT22;5193;51.032;6.356;2023-04-25T13:40:24;10.60;99.90
10296;DHT22;5193;51.032;6.356;2023-04-25T13:42:50;10.50;99.90
10296;DHT22;5193;51.032;6.356;2023-04-25T13:45:16;10.50;99.90
10296;DHT22;5193;51.032;6.356;2023-04-25T13:47:42;10.50;99.90
10296;DHT22;5193;51.032;6.356;2023-04-25T13:50:08;10.40;99.90
10296;DHT22;5193;51.032;6.356;2023-04-25T13:52:35;10.40;99.90
10296;DHT22;5193;51.032;6.356;2023-04-25T13:55:00;10.40;99.90
10296;DHT22;5193;51.032;6.356;2023-04-25T13:57:28;10.50;99.90
10296;DHT22;5193;51.032;6.356;2023-04-25T13:59:54;10.60;99.90
10296;DHT22;5193;51.032;6.356;2023-04-25T14:02:19;10.50;99.90
10296;DHT22;5193;51.032;6.356;2023-04-25T14:04:45;10.50;99.90
10296;DHT22;5193;51.032;6.356;2023-04-25T14:07:11;10.60;99.90
10296;DHT22;5193;51.032;6.356;2023-04-25T14:09:37;10.90;99.90
10296;DHT22;5193;51.032;6.356;2023-04-25T14:12:02;11.00;99.90
10296;DHT22;5193;51.032;6.356;2023-04-25T14:14:28;11.20;99.90
10296;DHT22;5193;51.032;6.356;2023-04-25T14:16:54;11.40;99.90
10296;DHT22;5193;51.032;6.356;2023-04-25T14:19:20;11.40;99.90
10296;DHT22;5193;51.032;6.356;2023-04-25T14:21:46;11.60;99.90
10296;DHT22;5193;51.032;6.356;2023-04-25T14:24:12;11.70;99.90
10296;DHT22;5193;51.032;6.356;2023-04-25T14:26:38;11.80;99.90
10296;DHT22;5193;51.032;6.356;2023-04-25T14:29:05;11.90;99.90
10296;DHT22;5193;51.032;6.356;2023-04-25T14:31:34;12.00;99.90
10296;DHT22;5193;51.032;6.356;2023-04-25T14:34:01;12.20;99.90
10296;DHT22;5193;51.032;6.356;2023-04-25T14:36:29;12.30;99.90
10296;DHT22;5193;51.032;6.356;2023-04-25T14:38:56;12.40;99.90
10296;DHT22;5193;51.032;6.356;2023-04-25T14:41:22;12.30;99.90
10296;DHT22;5193;51.032;6.356;2023-04-25T14:43:48;12.20;99.90
10296;DHT22;5193;51.032;6.356;2023-04-25T14:46:14;12.20;99.90
10296;DHT22;5193;51.032;6.356;2023-04-25T14:48:40;12.20;99.90
10296;DHT22;5193;51.032;6.356;2023-04-25T14:51:06;12.20;99.90
10296;DHT22;5193;51.032;6.356;2023-04-25T14:53:31;12.10;99.90
10296;DHT22;5193;51.032;6.356;2023-04-25T14:55:57;12.00;99.90
10296;DHT22;5193;51.032;6.356;2023-04-25T14:58:23;12.00;99.90
10296;DHT22;5193;51.032;6.356;2023-04-25T15:00:49;11.80;99.90
10296;DHT22;5193;51.032;6.356;2023-04-25T15:03:14;11.80;99.90
10296;DHT22;5193;51.032;6.356;2023-04-25T15:05:42;11.80;99.90
10296;DHT22;5193;51.032;6.356;2023-04-25T15:08:08;11.80;99.90
10296;DHT22;5193;51.032;6.356;2023-04-25T15:10:34;11.70;99.90
10296;DHT22;5193;51.032;6.356;2023-04-25T15:12:59;11.60;99.90
10296;DHT22;5193;51.032;6.356;2023-04-25T15:15:25;11.50;99.90
10296;DHT22;5193;51.032;6.356;2023-04-25T15:17:52;11.50;99.90
10296;DHT22;5193;51.032;6.356;2023-04-25T15:20:17;11.60;99.90
10296;DHT22;5193;51.032;6.356;2023-04-25T15:22:43;11.60;99.90
10296;DHT22;5193;51.032;6.356;2023-04-25T15:25:11;11.60;99.90
10296;DHT22;5193;51.032;6.356;2023-04-25T15:27:39;11.60;99.90
10296;DHT22;5193;51.032;6.356;2023-04-25T15:30:07;11.60;99.90
10296;DHT22;5193;51.032;6.356;2023-04-25T15:32:34;11.80;99.90
10296;DHT22;5193;51.032;6.356;2023-04-25T15:35:04;12.10;99.90
10296;DHT22;5193;51.032;6.356;2023-04-25T15:37:31;12.30;99.90
10296;DHT22;5193;51.032;6.356;2023-04-25T15:40:05;12.40;99.90
10296;DHT22;5193;51.032;6.356;2023-04-25T15:42:52;12.60;99.90
10296;DHT22;5193;51.032;6.356;2023-04-25T15:45:24;12.60;99.90
10296;DHT22;5193;51.032;6.356;2023-04-25T15:47:51;12.50;99.90
10296;DHT22;5193;51.032;6.356;2023-04-25T15:50:17;12.30;99.90